CheckWX is a tool to help pilots better visualize weather data.  It is not intended as a substitute for an official pre-flight weather briefing.

09:02:41 UTC

ESMX METAR
Växjö Kronoberg Airport
Växjö, Sweden
Current

13 mins ago

ESMX 220850Z 08004KT 030V130 CAVOK M03/M05 Q1041
Observed
Feb-22 @ 08:50 UTC
Wind
  • 080° at 4 KTS
Visibility
10,000+ meters
Flight Rules
VFR
Cloud Levels
  • Clear skies
Temperature
-3°C / 27°F
Dewpoint
-5°C / 23°F
Humidity
86%
Altimeter
30.74" Hg
Pressure
1040.91 hPa
Previous

43 mins ago

ESMX 220820Z 08003KT 030V140 CAVOK M03/M05 Q1041
Observed
Feb-22 @ 08:20 UTC
Wind
  • 080° at 3 KTS
Visibility
10,000+ meters
Flight Rules
VFR
Cloud Levels
  • Clear skies
Temperature
-3°C / 27°F
Dewpoint
-5°C / 23°F
Humidity
86%
Altimeter
30.74" Hg
Pressure
1040.91 hPa
Previous

1 hour ago

ESMX 220750Z 08004KT 340V120 CAVOK M04/M05 Q1040
Observed
Feb-22 @ 07:50 UTC
Wind
  • 080° at 4 KTS
Visibility
10,000+ meters
Flight Rules
VFR
Cloud Levels
  • Clear skies
Temperature
-4°C / 25°F
Dewpoint
-5°C / 23°F
Humidity
93%
Altimeter
30.71" Hg
Pressure
1039.91 hPa